sensor_id;sensor_type;location;lat;lon;timestamp;P1;durP1;ratioP1;P2;durP2;ratioP2
4933;SDS011;2482;49.154;8.254;2023-04-24T00:02:00;3.10;;;2.20;;
4933;SDS011;2482;49.154;8.254;2023-04-24T00:04:27;2.40;;;2.00;;
4933;SDS011;2482;49.154;8.254;2023-04-24T00:06:54;2.80;;;2.03;;
4933;SDS011;2482;49.154;8.254;2023-04-24T00:09:23;2.23;;;1.77;;
4933;SDS011;2482;49.154;8.254;2023-04-24T00:11:50;2.30;;;1.57;;
4933;SDS011;2482;49.154;8.254;2023-04-24T00:14:17;3.43;;;2.07;;
4933;SDS011;2482;49.154;8.254;2023-04-24T00:16:44;4.17;;;2.00;;
4933;SDS011;2482;49.154;8.254;2023-04-24T00:19:11;4.67;;;1.50;;
4933;SDS011;2482;49.154;8.254;2023-04-24T00:21:39;3.10;;;2.30;;
4933;SDS011;2482;49.154;8.254;2023-04-24T00:24:07;4.47;;;1.70;;
4933;SDS011;2482;49.154;8.254;2023-04-24T00:26:37;3.43;;;2.10;;
4933;SDS011;2482;49.154;8.254;2023-04-24T00:29:04;4.37;;;1.70;;
4933;SDS011;2482;49.154;8.254;2023-04-24T00:31:31;2.20;;;1.60;;
4933;SDS011;2482;49.154;8.254;2023-04-24T00:34:01;2.97;;;1.87;;
4933;SDS011;2482;49.154;8.254;2023-04-24T00:36:29;3.17;;;2.00;;
4933;SDS011;2482;49.154;8.254;2023-04-24T00:38:57;3.53;;;1.83;;
4933;SDS011;2482;49.154;8.254;2023-04-24T00:41:24;3.63;;;1.87;;
4933;SDS011;2482;49.154;8.254;2023-04-24T00:43:52;3.17;;;1.50;;
4933;SDS011;2482;49.154;8.254;2023-04-24T00:46:19;5.83;;;1.30;;
4933;SDS011;2482;49.154;8.254;2023-04-24T00:48:47;6.63;;;1.70;;
4933;SDS011;2482;49.154;8.254;2023-04-24T00:51:14;4.40;;;1.70;;
4933;SDS011;2482;49.154;8.254;2023-04-24T00:53:42;4.70;;;1.50;;
4933;SDS011;2482;49.154;8.254;2023-04-24T00:56:09;2.57;;;1.50;;
4933;SDS011;2482;49.154;8.254;2023-04-24T00:58:36;1.80;;;1.70;;
4933;SDS011;2482;49.154;8.254;2023-04-24T01:01:03;1.80;;;1.70;;
4933;SDS011;2482;49.154;8.254;2023-04-24T01:03:33;1.40;;;1.30;;
4933;SDS011;2482;49.154;8.254;2023-04-24T01:06:03;1.50;;;1.40;;
4933;SDS011;2482;49.154;8.254;2023-04-24T01:08:34;4.73;;;1.40;;
4933;SDS011;2482;49.154;8.254;2023-04-24T01:11:02;1.63;;;1.40;;
4933;SDS011;2482;49.154;8.254;2023-04-24T01:13:31;3.23;;;1.30;;
4933;SDS011;2482;49.154;8.254;2023-04-24T01:15:59;2.33;;;1.60;;
4933;SDS011;2482;49.154;8.254;2023-04-24T01:18:27;1.83;;;1.10;;
4933;SDS011;2482;49.154;8.254;2023-04-24T01:20:57;5.83;;;1.60;;
4933;SDS011;2482;49.154;8.254;2023-04-24T01:23:26;1.20;;;1.10;;
4933;SDS011;2482;49.154;8.254;2023-04-24T01:25:53;2.20;;;1.37;;
4933;SDS011;2482;49.154;8.254;2023-04-24T01:28:21;1.23;;;1.13;;
4933;SDS011;2482;49.154;8.254;2023-04-24T01:30:48;3.10;;;1.43;;
4933;SDS011;2482;49.154;8.254;2023-04-24T01:33:16;2.77;;;1.70;;
4933;SDS011;2482;49.154;8.254;2023-04-24T01:35:43;3.67;;;1.20;;
4933;SDS011;2482;49.154;8.254;2023-04-24T01:38:10;1.63;;;1.23;;
4933;SDS011;2482;49.154;8.254;2023-04-24T01:40:38;2.00;;;1.27;;
4933;SDS011;2482;49.154;8.254;2023-04-24T01:43:05;3.30;;;1.70;;
4933;SDS011;2482;49.154;8.254;2023-04-24T01:45:32;2.30;;;1.50;;
4933;SDS011;2482;49.154;8.254;2023-04-24T01:48:00;1.40;;;1.30;;
4933;SDS011;2482;49.154;8.254;2023-04-24T01:50:27;5.03;;;1.40;;
4933;SDS011;2482;49.154;8.254;2023-04-24T01:52:54;1.43;;;1.30;;
4933;SDS011;2482;49.154;8.254;2023-04-24T01:55:21;2.10;;;1.50;;
4933;SDS011;2482;49.154;8.254;2023-04-24T01:57:48;2.03;;;1.20;;
4933;SDS011;2482;49.154;8.254;2023-04-24T02:00:18;1.33;;;1.20;;
4933;SDS011;2482;49.154;8.254;2023-04-24T02:02:45;1.30;;;1.20;;
4933;SDS011;2482;49.154;8.254;2023-04-24T02:05:14;1.53;;;1.20;;
4933;SDS011;2482;49.154;8.254;2023-04-24T02:07:41;4.63;;;1.47;;
4933;SDS011;2482;49.154;8.254;2023-04-24T02:10:08;1.30;;;1.00;;
4933;SDS011;2482;49.154;8.254;2023-04-24T02:12:36;3.20;;;1.50;;
4933;SDS011;2482;49.154;8.254;2023-04-24T02:15:03;1.57;;;1.23;;
4933;SDS011;2482;49.154;8.254;2023-04-24T02:17:31;1.30;;;1.20;;
4933;SDS011;2482;49.154;8.254;2023-04-24T02:19:58;1.17;;;1.10;;
4933;SDS011;2482;49.154;8.254;2023-04-24T02:22:25;2.70;;;1.30;;
4933;SDS011;2482;49.154;8.254;2023-04-24T02:24:52;2.27;;;1.40;;
4933;SDS011;2482;49.154;8.254;2023-04-24T02:27:19;1.40;;;1.30;;
4933;SDS011;2482;49.154;8.254;2023-04-24T02:29:46;6.63;;;1.73;;
4933;SDS011;2482;49.154;8.254;2023-04-24T02:32:13;3.00;;;1.43;;
4933;SDS011;2482;49.154;8.254;2023-04-24T02:34:42;2.10;;;1.90;;
4933;SDS011;2482;49.154;8.254;2023-04-24T02:37:09;1.40;;;1.30;;
4933;SDS011;2482;49.154;8.254;2023-04-24T02:39:36;2.60;;;1.67;;
4933;SDS011;2482;49.154;8.254;2023-04-24T02:42:02;3.17;;;1.80;;
4933;SDS011;2482;49.154;8.254;2023-04-24T02:44:30;1.97;;;1.80;;
4933;SDS011;2482;49.154;8.254;2023-04-24T02:46:56;5.00;;;2.13;;
4933;SDS011;2482;49.154;8.254;2023-04-24T02:49:23;2.27;;;1.57;;
4933;SDS011;2482;49.154;8.254;2023-04-24T02:51:50;2.40;;;1.70;;
4933;SDS011;2482;49.154;8.254;2023-04-24T02:54:17;2.37;;;2.03;;
4933;SDS011;2482;49.154;8.254;2023-04-24T02:56:44;2.13;;;2.03;;
4933;SDS011;2482;49.154;8.254;2023-04-24T02:59:11;1.60;;;1.50;;
4933;SDS011;2482;49.154;8.254;2023-04-24T03:01:38;2.73;;;1.73;;
4933;SDS011;2482;49.154;8.254;2023-04-24T03:04:05;4.67;;;2.27;;
4933;SDS011;2482;49.154;8.254;2023-04-24T03:06:33;3.23;;;2.20;;
4933;SDS011;2482;49.154;8.254;2023-04-24T03:09:01;1.80;;;1.70;;
4933;SDS011;2482;49.154;8.254;2023-04-24T03:11:29;9.50;;;3.37;;
4933;SDS011;2482;49.154;8.254;2023-04-24T03:13:56;5.33;;;2.10;;
4933;SDS011;2482;49.154;8.254;2023-04-24T03:16:23;2.70;;;2.50;;
4933;SDS011;2482;49.154;8.254;2023-04-24T03:18:50;5.00;;;2.00;;
4933;SDS011;2482;49.154;8.254;2023-04-24T03:21:18;2.73;;;2.10;;
4933;SDS011;2482;49.154;8.254;2023-04-24T03:23:45;4.40;;;1.73;;
4933;SDS011;2482;49.154;8.254;2023-04-24T03:26:12;3.33;;;2.00;;
4933;SDS011;2482;49.154;8.254;2023-04-24T03:28:39;2.63;;;1.93;;
4933;SDS011;2482;49.154;8.254;2023-04-24T03:31:07;2.40;;;2.10;;
4933;SDS011;2482;49.154;8.254;2023-04-24T03:33:34;3.13;;;2.07;;
4933;SDS011;2482;49.154;8.254;2023-04-24T03:36:02;2.50;;;2.30;;
4933;SDS011;2482;49.154;8.254;2023-04-24T03:38:31;2.50;;;2.30;;
4933;SDS011;2482;49.154;8.254;2023-04-24T03:40:58;2.13;;;1.93;;
4933;SDS011;2482;49.154;8.254;2023-04-24T03:43:25;2.00;;;1.80;;
4933;SDS011;2482;49.154;8.254;2023-04-24T03:45:53;6.87;;;2.27;;
4933;SDS011;2482;49.154;8.254;2023-04-24T03:48:20;2.60;;;2.37;;
4933;SDS011;2482;49.154;8.254;2023-04-24T03:50:47;3.47;;;2.13;;
4933;SDS011;2482;49.154;8.254;2023-04-24T03:53:14;8.40;;;1.90;;
4933;SDS011;2482;49.154;8.254;2023-04-24T03:55:41;3.00;;;2.00;;
4933;SDS011;2482;49.154;8.254;2023-04-24T03:58:08;2.03;;;1.83;;
4933;SDS011;2482;49.154;8.254;2023-04-24T04:00:35;1.80;;;1.70;;
4933;SDS011;2482;49.154;8.254;2023-04-24T04:03:03;2.07;;;1.97;;
4933;SDS011;2482;49.154;8.254;2023-04-24T04:05:31;2.40;;;2.20;;
4933;SDS011;2482;49.154;8.254;2023-04-24T04:07:57;1.87;;;1.77;;
4933;SDS011;2482;49.154;8.254;2023-04-24T04:10:24;2.20;;;1.97;;
4933;SDS011;2482;49.154;8.254;2023-04-24T04:12:52;2.30;;;2.03;;
4933;SDS011;2482;49.154;8.254;2023-04-24T04:15:20;2.17;;;2.07;;
4933;SDS011;2482;49.154;8.254;2023-04-24T04:17:47;2.33;;;2.13;;
4933;SDS011;2482;49.154;8.254;2023-04-24T04:20:14;2.30;;;2.10;;
4933;SDS011;2482;49.154;8.254;2023-04-24T04:22:41;2.60;;;2.10;;
4933;SDS011;2482;49.154;8.254;2023-04-24T04:25:10;3.23;;;2.20;;
4933;SDS011;2482;49.154;8.254;2023-04-24T04:27:37;2.70;;;2.50;;
4933;SDS011;2482;49.154;8.254;2023-04-24T04:30:05;3.10;;;2.53;;
4933;SDS011;2482;49.154;8.254;2023-04-24T04:32:33;2.67;;;2.40;;
4933;SDS011;2482;49.154;8.254;2023-04-24T04:35:01;3.97;;;2.93;;
4933;SDS011;2482;49.154;8.254;2023-04-24T04:37:31;4.03;;;2.70;;
4933;SDS011;2482;49.154;8.254;2023-04-24T04:39:59;3.70;;;2.70;;
4933;SDS011;2482;49.154;8.254;2023-04-24T04:42:27;2.83;;;2.63;;
4933;SDS011;2482;49.154;8.254;2023-04-24T04:44:54;5.77;;;2.77;;
4933;SDS011;2482;49.154;8.254;2023-04-24T04:47:23;2.80;;;2.60;;
4933;SDS011;2482;49.154;8.254;2023-04-24T04:49:51;5.10;;;2.57;;
4933;SDS011;2482;49.154;8.254;2023-04-24T04:52:18;3.17;;;2.87;;
4933;SDS011;2482;49.154;8.254;2023-04-24T04:54:45;2.73;;;2.50;;
4933;SDS011;2482;49.154;8.254;2023-04-24T04:57:12;4.30;;;3.20;;
4933;SDS011;2482;49.154;8.254;2023-04-24T04:59:39;3.40;;;3.10;;
4933;SDS011;2482;49.154;8.254;2023-04-24T05:02:07;3.20;;;2.87;;
4933;SDS011;2482;49.154;8.254;2023-04-24T05:04:35;3.27;;;2.67;;
4933;SDS011;2482;49.154;8.254;2023-04-24T05:07:02;4.50;;;3.57;;
4933;SDS011;2482;49.154;8.254;2023-04-24T05:09:29;3.57;;;3.03;;
4933;SDS011;2482;49.154;8.254;2023-04-24T05:11:56;4.17;;;3.53;;
4933;SDS011;2482;49.154;8.254;2023-04-24T05:14:23;3.30;;;2.80;;
4933;SDS011;2482;49.154;8.254;2023-04-24T05:16:50;3.83;;;3.20;;
4933;SDS011;2482;49.154;8.254;2023-04-24T05:19:17;5.43;;;3.40;;
4933;SDS011;2482;49.154;8.254;2023-04-24T05:21:44;4.60;;;3.53;;
4933;SDS011;2482;49.154;8.254;2023-04-24T05:24:11;3.60;;;3.30;;
4933;SDS011;2482;49.154;8.254;2023-04-24T05:26:38;3.20;;;2.90;;
4933;SDS011;2482;49.154;8.254;2023-04-24T05:29:05;2.77;;;2.57;;
4933;SDS011;2482;49.154;8.254;2023-04-24T05:31:32;3.43;;;3.10;;
4933;SDS011;2482;49.154;8.254;2023-04-24T05:33:59;2.80;;;2.60;;
4933;SDS011;2482;49.154;8.254;2023-04-24T05:36:26;2.97;;;2.67;;
4933;SDS011;2482;49.154;8.254;2023-04-24T05:38:54;2.60;;;2.40;;
4933;SDS011;2482;49.154;8.254;2023-04-24T05:41:21;3.50;;;3.20;;
4933;SDS011;2482;49.154;8.254;2023-04-24T05:43:48;3.13;;;2.53;;
4933;SDS011;2482;49.154;8.254;2023-04-24T05:46:16;2.57;;;2.23;;
4933;SDS011;2482;49.154;8.254;2023-04-24T05:48:43;2.80;;;2.60;;
4933;SDS011;2482;49.154;8.254;2023-04-24T05:51:09;6.10;;;3.23;;
4933;SDS011;2482;49.154;8.254;2023-04-24T05:53:37;2.90;;;2.70;;
4933;SDS011;2482;49.154;8.254;2023-04-24T05:56:04;3.37;;;3.07;;
4933;SDS011;2482;49.154;8.254;2023-04-24T05:58:31;3.13;;;2.80;;
4933;SDS011;2482;49.154;8.254;2023-04-24T06:00:58;3.20;;;2.90;;
4933;SDS011;2482;49.154;8.254;2023-04-24T06:03:27;3.03;;;2.73;;
4933;SDS011;2482;49.154;8.254;2023-04-24T06:05:54;5.77;;;3.23;;
4933;SDS011;2482;49.154;8.254;2023-04-24T06:08:21;3.10;;;2.83;;
4933;SDS011;2482;49.154;8.254;2023-04-24T06:10:48;3.53;;;3.23;;
4933;SDS011;2482;49.154;8.254;2023-04-24T06:13:15;5.40;;;2.50;;
4933;SDS011;2482;49.154;8.254;2023-04-24T06:15:43;7.33;;;2.50;;
4933;SDS011;2482;49.154;8.254;2023-04-24T06:18:10;3.90;;;2.60;;
4933;SDS011;2482;49.154;8.254;2023-04-24T06:20:38;3.20;;;2.37;;
4933;SDS011;2482;49.154;8.254;2023-04-24T06:23:06;5.80;;;2.33;;
4933;SDS011;2482;49.154;8.254;2023-04-24T06:25:33;5.57;;;2.67;;
4933;SDS011;2482;49.154;8.254;2023-04-24T06:28:00;3.70;;;3.30;;
4933;SDS011;2482;49.154;8.254;2023-04-24T06:30:27;4.30;;;2.70;;
4933;SDS011;2482;49.154;8.254;2023-04-24T06:32:55;3.47;;;3.20;;
4933;SDS011;2482;49.154;8.254;2023-04-24T06:35:31;3.70;;;2.90;;
4933;SDS011;2482;49.154;8.254;2023-04-24T06:37:58;3.60;;;2.60;;
4933;SDS011;2482;49.154;8.254;2023-04-24T06:40:25;2.80;;;2.60;;
4933;SDS011;2482;49.154;8.254;2023-04-24T06:42:52;3.13;;;2.70;;
4933;SDS011;2482;49.154;8.254;2023-04-24T06:45:19;3.23;;;2.83;;
4933;SDS011;2482;49.154;8.254;2023-04-24T06:47:46;6.43;;;2.50;;
4933;SDS011;2482;49.154;8.254;2023-04-24T06:50:13;2.83;;;2.30;;
4933;SDS011;2482;49.154;8.254;2023-04-24T06:52:40;3.00;;;2.70;;
4933;SDS011;2482;49.154;8.254;2023-04-24T06:55:07;3.10;;;1.93;;
4933;SDS011;2482;49.154;8.254;2023-04-24T06:57:34;2.70;;;2.17;;
4933;SDS011;2482;49.154;8.254;2023-04-24T07:00:02;1.50;;;1.40;;
4933;SDS011;2482;49.154;8.254;2023-04-24T07:02:31;1.50;;;1.40;;
4933;SDS011;2482;49.154;8.254;2023-04-24T07:04:58;1.10;;;1.00;;
4933;SDS011;2482;49.154;8.254;2023-04-24T07:07:25;2.50;;;1.50;;
4933;SDS011;2482;49.154;8.254;2023-04-24T07:09:52;1.50;;;1.40;;
4933;SDS011;2482;49.154;8.254;2023-04-24T07:12:20;1.83;;;1.70;;
4933;SDS011;2482;49.154;8.254;2023-04-24T07:14:48;2.00;;;1.57;;
4933;SDS011;2482;49.154;8.254;2023-04-24T07:17:15;1.77;;;1.67;;
4933;SDS011;2482;49.154;8.254;2023-04-24T07:19:42;2.50;;;1.60;;
4933;SDS011;2482;49.154;8.254;2023-04-24T07:22:09;2.20;;;1.90;;
4933;SDS011;2482;49.154;8.254;2023-04-24T07:24:44;1.93;;;1.83;;
4933;SDS011;2482;49.154;8.254;2023-04-24T07:27:11;2.13;;;1.90;;
4933;SDS011;2482;49.154;8.254;2023-04-24T07:29:38;7.67;;;2.40;;
4933;SDS011;2482;49.154;8.254;2023-04-24T07:32:08;2.40;;;1.73;;
4933;SDS011;2482;49.154;8.254;2023-04-24T07:34:35;1.87;;;1.77;;
4933;SDS011;2482;49.154;8.254;2023-04-24T07:37:03;2.03;;;1.50;;
4933;SDS011;2482;49.154;8.254;2023-04-24T07:39:30;1.50;;;1.40;;
4933;SDS011;2482;49.154;8.254;2023-04-24T07:41:57;1.80;;;1.70;;
4933;SDS011;2482;49.154;8.254;2023-04-24T07:44:25;2.20;;;1.80;;
4933;SDS011;2482;49.154;8.254;2023-04-24T07:46:53;2.17;;;1.60;;
4933;SDS011;2482;49.154;8.254;2023-04-24T07:49:20;2.47;;;1.60;;
4933;SDS011;2482;49.154;8.254;2023-04-24T07:51:47;1.93;;;1.70;;
4933;SDS011;2482;49.154;8.254;2023-04-24T07:54:15;1.70;;;1.60;;
4933;SDS011;2482;49.154;8.254;2023-04-24T07:56:43;2.80;;;1.53;;
4933;SDS011;2482;49.154;8.254;2023-04-24T07:59:10;1.63;;;1.50;;
4933;SDS011;2482;49.154;8.254;2023-04-24T08:01:37;4.10;;;1.63;;
4933;SDS011;2482;49.154;8.254;2023-04-24T08:04:04;2.80;;;1.70;;
4933;SDS011;2482;49.154;8.254;2023-04-24T08:06:32;1.50;;;1.40;;
4933;SDS011;2482;49.154;8.254;2023-04-24T08:08:59;1.20;;;1.10;;
4933;SDS011;2482;49.154;8.254;2023-04-24T08:11:26;1.10;;;1.00;;
4933;SDS011;2482;49.154;8.254;2023-04-24T08:13:53;1.70;;;1.30;;
4933;SDS011;2482;49.154;8.254;2023-04-24T08:16:21;1.07;;;0.97;;
4933;SDS011;2482;49.154;8.254;2023-04-24T08:18:50;1.90;;;1.80;;
4933;SDS011;2482;49.154;8.254;2023-04-24T08:21:17;1.87;;;1.40;;
4933;SDS011;2482;49.154;8.254;2023-04-24T08:23:45;2.60;;;1.20;;
4933;SDS011;2482;49.154;8.254;2023-04-24T08:26:12;1.57;;;1.10;;
4933;SDS011;2482;49.154;8.254;2023-04-24T08:28:39;4.57;;;1.00;;
4933;SDS011;2482;49.154;8.254;2023-04-24T08:31:06;3.90;;;1.40;;
4933;SDS011;2482;49.154;8.254;2023-04-24T08:33:33;1.20;;;1.10;;
4933;SDS011;2482;49.154;8.254;2023-04-24T08:36:04;1.87;;;1.20;;
4933;SDS011;2482;49.154;8.254;2023-04-24T08:38:32;1.40;;;1.30;;
4933;SDS011;2482;49.154;8.254;2023-04-24T08:41:00;4.40;;;1.70;;
4933;SDS011;2482;49.154;8.254;2023-04-24T08:43:28;0.90;;;0.90;;
4933;SDS011;2482;49.154;8.254;2023-04-24T08:45:55;1.20;;;1.10;;
4933;SDS011;2482;49.154;8.254;2023-04-24T08:48:23;1.57;;;1.10;;
4933;SDS011;2482;49.154;8.254;2023-04-24T08:50:57;3.10;;;1.40;;
4933;SDS011;2482;49.154;8.254;2023-04-24T08:53:25;1.20;;;1.10;;
4933;SDS011;2482;49.154;8.254;2023-04-24T08:55:54;2.17;;;1.40;;
4933;SDS011;2482;49.154;8.254;2023-04-24T08:58:25;1.53;;;1.37;;
4933;SDS011;2482;49.154;8.254;2023-04-24T09:00:56;1.43;;;1.30;;
4933;SDS011;2482;49.154;8.254;2023-04-24T09:03:24;3.97;;;1.57;;
4933;SDS011;2482;49.154;8.254;2023-04-24T09:05:55;3.83;;;1.40;;
4933;SDS011;2482;49.154;8.254;2023-04-24T09:08:24;1.50;;;1.40;;
4933;SDS011;2482;49.154;8.254;2023-04-24T09:10:52;1.47;;;1.37;;
4933;SDS011;2482;49.154;8.254;2023-04-24T09:13:19;1.60;;;1.50;;
4933;SDS011;2482;49.154;8.254;2023-04-24T09:15:47;1.80;;;1.63;;
4933;SDS011;2482;49.154;8.254;2023-04-24T09:18:14;3.33;;;2.73;;
4933;SDS011;2482;49.154;8.254;2023-04-24T09:20:56;1.70;;;1.60;;
4933;SDS011;2482;49.154;8.254;2023-04-24T09:23:38;2.33;;;2.10;;
4933;SDS011;2482;49.154;8.254;2023-04-24T09:26:06;2.37;;;2.10;;
4933;SDS011;2482;49.154;8.254;2023-04-24T09:28:39;2.50;;;2.30;;
4933;SDS011;2482;49.154;8.254;2023-04-24T09:33:58;3.70;;;1.90;;
4933;SDS011;2482;49.154;8.254;2023-04-24T09:36:34;2.57;;;1.67;;
4933;SDS011;2482;49.154;8.254;2023-04-24T09:39:05;6.20;;;2.70;;
4933;SDS011;2482;49.154;8.254;2023-04-24T09:41:34;2.07;;;1.97;;
4933;SDS011;2482;49.154;8.254;2023-04-24T09:47:00;4.07;;;2.00;;
4933;SDS011;2482;49.154;8.254;2023-04-24T09:49:28;2.97;;;2.17;;
4933;SDS011;2482;49.154;8.254;2023-04-24T09:52:03;2.03;;;1.93;;
4933;SDS011;2482;49.154;8.254;2023-04-24T09:54:38;9.67;;;2.27;;
4933;SDS011;2482;49.154;8.254;2023-04-24T09:57:09;2.33;;;2.13;;
4933;SDS011;2482;49.154;8.254;2023-04-24T09:59:41;2.70;;;2.07;;
4933;SDS011;2482;49.154;8.254;2023-04-24T10:02:17;2.63;;;2.30;;
4933;SDS011;2482;49.154;8.254;2023-04-24T10:04:56;2.70;;;2.23;;
4933;SDS011;2482;49.154;8.254;2023-04-24T10:07:26;3.77;;;2.30;;
4933;SDS011;2482;49.154;8.254;2023-04-24T10:09:53;3.07;;;2.77;;
4933;SDS011;2482;49.154;8.254;2023-04-24T10:12:21;3.53;;;2.33;;
4933;SDS011;2482;49.154;8.254;2023-04-24T10:14:49;3.00;;;2.77;;
4933;SDS011;2482;49.154;8.254;2023-04-24T10:17:16;2.77;;;2.57;;
4933;SDS011;2482;49.154;8.254;2023-04-24T10:19:46;2.60;;;2.40;;
4933;SDS011;2482;49.154;8.254;2023-04-24T10:22:14;2.57;;;2.37;;
4933;SDS011;2482;49.154;8.254;2023-04-24T10:24:44;4.00;;;2.60;;
4933;SDS011;2482;49.154;8.254;2023-04-24T10:27:13;5.20;;;2.67;;
4933;SDS011;2482;49.154;8.254;2023-04-24T10:29:41;3.90;;;3.00;;
4933;SDS011;2482;49.154;8.254;2023-04-24T10:32:11;4.00;;;2.23;;
4933;SDS011;2482;49.154;8.254;2023-04-24T10:34:38;2.43;;;2.23;;
4933;SDS011;2482;49.154;8.254;2023-04-24T10:37:05;4.33;;;2.53;;
4933;SDS011;2482;49.154;8.254;2023-04-24T10:39:32;2.63;;;2.43;;
4933;SDS011;2482;49.154;8.254;2023-04-24T10:41:59;2.60;;;2.40;;
4933;SDS011;2482;49.154;8.254;2023-04-24T10:44:27;6.43;;;2.73;;
4933;SDS011;2482;49.154;8.254;2023-04-24T10:47:03;2.57;;;2.33;;
4933;SDS011;2482;49.154;8.254;2023-04-24T10:49:31;7.73;;;3.07;;
4933;SDS011;2482;49.154;8.254;2023-04-24T10:52:02;3.67;;;2.50;;
4933;SDS011;2482;49.154;8.254;2023-04-24T10:54:36;4.47;;;2.60;;
4933;SDS011;2482;49.154;8.254;2023-04-24T10:57:29;3.30;;;2.30;;
4933;SDS011;2482;49.154;8.254;2023-04-24T11:00:15;5.23;;;2.67;;
4933;SDS011;2482;49.154;8.254;2023-04-24T11:02:48;3.30;;;2.80;;
4933;SDS011;2482;49.154;8.254;2023-04-24T11:05:17;4.73;;;2.83;;
4933;SDS011;2482;49.154;8.254;2023-04-24T11:10:44;2.87;;;2.67;;
4933;SDS011;2482;49.154;8.254;2023-04-24T11:13:16;3.90;;;3.20;;
4933;SDS011;2482;49.154;8.254;2023-04-24T11:18:42;3.50;;;3.20;;
4933;SDS011;2482;49.154;8.254;2023-04-24T11:21:12;3.60;;;3.20;;
4933;SDS011;2482;49.154;8.254;2023-04-24T11:23:39;4.40;;;2.90;;
4933;SDS011;2482;49.154;8.254;2023-04-24T11:26:11;3.80;;;3.10;;
4933;SDS011;2482;49.154;8.254;2023-04-24T11:28:47;3.30;;;2.77;;
4933;SDS011;2482;49.154;8.254;2023-04-24T11:34:18;3.57;;;2.83;;
4933;SDS011;2482;49.154;8.254;2023-04-24T11:36:46;4.70;;;2.47;;
4933;SDS011;2482;49.154;8.254;2023-04-24T11:39:14;3.23;;;2.93;;
4933;SDS011;2482;49.154;8.254;2023-04-24T11:41:41;3.10;;;2.80;;
4933;SDS011;2482;49.154;8.254;2023-04-24T11:44:09;3.67;;;3.20;;
4933;SDS011;2482;49.154;8.254;2023-04-24T11:46:37;2.97;;;2.77;;
4933;SDS011;2482;49.154;8.254;2023-04-24T11:49:06;4.67;;;3.20;;
4933;SDS011;2482;49.154;8.254;2023-04-24T11:51:33;5.93;;;3.07;;
4933;SDS011;2482;49.154;8.254;2023-04-24T11:54:18;4.17;;;3.00;;
4933;SDS011;2482;49.154;8.254;2023-04-24T11:56:46;3.37;;;3.07;;
4933;SDS011;2482;49.154;8.254;2023-04-24T11:59:14;7.50;;;3.50;;
4933;SDS011;2482;49.154;8.254;2023-04-24T12:01:48;4.97;;;2.90;;
4933;SDS011;2482;49.154;8.254;2023-04-24T12:04:16;4.33;;;3.33;;
4933;SDS011;2482;49.154;8.254;2023-04-24T12:07:04;3.70;;;3.10;;
4933;SDS011;2482;49.154;8.254;2023-04-24T12:09:45;5.13;;;2.73;;
4933;SDS011;2482;49.154;8.254;2023-04-24T12:12:17;6.87;;;3.17;;
4933;SDS011;2482;49.154;8.254;2023-04-24T12:14:48;4.67;;;3.60;;
4933;SDS011;2482;49.154;8.254;2023-04-24T12:17:23;4.50;;;3.27;;
4933;SDS011;2482;49.154;8.254;2023-04-24T12:20:04;4.37;;;3.00;;
4933;SDS011;2482;49.154;8.254;2023-04-24T12:22:46;6.30;;;3.10;;
4933;SDS011;2482;49.154;8.254;2023-04-24T12:25:25;2.90;;;2.50;;
4933;SDS011;2482;49.154;8.254;2023-04-24T12:30:32;3.53;;;2.47;;
4933;SDS011;2482;49.154;8.254;2023-04-24T12:33:02;3.47;;;3.17;;
4933;SDS011;2482;49.154;8.254;2023-04-24T12:35:30;4.80;;;2.63;;
4933;SDS011;2482;49.154;8.254;2023-04-24T12:38:06;4.03;;;2.70;;
4933;SDS011;2482;49.154;8.254;2023-04-24T12:40:39;3.40;;;2.90;;
4933;SDS011;2482;49.154;8.254;2023-04-24T12:43:14;6.50;;;2.87;;
4933;SDS011;2482;49.154;8.254;2023-04-24T12:45:45;3.00;;;2.70;;
4933;SDS011;2482;49.154;8.254;2023-04-24T12:48:15;3.57;;;2.60;;
4933;SDS011;2482;49.154;8.254;2023-04-24T12:50:43;5.83;;;2.90;;
4933;SDS011;2482;49.154;8.254;2023-04-24T12:53:14;3.80;;;2.70;;
4933;SDS011;2482;49.154;8.254;2023-04-24T12:55:42;3.00;;;2.70;;
4933;SDS011;2482;49.154;8.254;2023-04-24T12:58:12;3.97;;;2.40;;
4933;SDS011;2482;49.154;8.254;2023-04-24T13:00:39;2.23;;;2.00;;
4933;SDS011;2482;49.154;8.254;2023-04-24T13:03:09;3.27;;;2.33;;
4933;SDS011;2482;49.154;8.254;2023-04-24T13:05:37;2.83;;;2.63;;
4933;SDS011;2482;49.154;8.254;2023-04-24T13:08:04;5.80;;;3.27;;
4933;SDS011;2482;49.154;8.254;2023-04-24T13:10:31;4.03;;;2.90;;
4933;SDS011;2482;49.154;8.254;2023-04-24T13:12:58;4.80;;;3.00;;
4933;SDS011;2482;49.154;8.254;2023-04-24T13:15:26;6.63;;;3.23;;
4933;SDS011;2482;49.154;8.254;2023-04-24T13:17:52;5.40;;;2.97;;
4933;SDS011;2482;49.154;8.254;2023-04-24T13:20:20;3.57;;;2.60;;
4933;SDS011;2482;49.154;8.254;2023-04-24T13:22:47;3.63;;;2.80;;
4933;SDS011;2482;49.154;8.254;2023-04-24T13:25:14;2.70;;;2.33;;
4933;SDS011;2482;49.154;8.254;2023-04-24T13:27:43;3.47;;;2.70;;
4933;SDS011;2482;49.154;8.254;2023-04-24T13:30:10;5.30;;;2.83;;
4933;SDS011;2482;49.154;8.254;2023-04-24T13:32:38;3.60;;;3.00;;
4933;SDS011;2482;49.154;8.254;2023-04-24T13:35:05;3.87;;;2.83;;
4933;SDS011;2482;49.154;8.254;2023-04-24T13:37:32;2.57;;;2.37;;
4933;SDS011;2482;49.154;8.254;2023-04-24T13:39:59;4.23;;;2.80;;
4933;SDS011;2482;49.154;8.254;2023-04-24T13:42:27;3.80;;;2.97;;
4933;SDS011;2482;49.154;8.254;2023-04-24T13:44:54;2.70;;;2.13;;
4933;SDS011;2482;49.154;8.254;2023-04-24T13:47:21;2.57;;;2.37;;
4933;SDS011;2482;49.154;8.254;2023-04-24T13:49:48;3.70;;;2.40;;
4933;SDS011;2482;49.154;8.254;2023-04-24T13:52:16;5.70;;;3.80;;
4933;SDS011;2482;49.154;8.254;2023-04-24T13:54:43;3.13;;;2.83;;
4933;SDS011;2482;49.154;8.254;2023-04-24T13:57:11;2.83;;;2.53;;
4933;SDS011;2482;49.154;8.254;2023-04-24T13:59:38;3.10;;;2.77;;
4933;SDS011;2482;49.154;8.254;2023-04-24T14:02:05;4.47;;;2.97;;
4933;SDS011;2482;49.154;8.254;2023-04-24T14:04:32;4.23;;;3.10;;
4933;SDS011;2482;49.154;8.254;2023-04-24T14:06:59;3.50;;;2.63;;
4933;SDS011;2482;49.154;8.254;2023-04-24T14:09:27;2.53;;;2.03;;
4933;SDS011;2482;49.154;8.254;2023-04-24T14:11:54;4.10;;;3.40;;
4933;SDS011;2482;49.154;8.254;2023-04-24T14:14:22;4.77;;;2.90;;
4933;SDS011;2482;49.154;8.254;2023-04-24T14:16:50;3.77;;;2.30;;
4933;SDS011;2482;49.154;8.254;2023-04-24T14:19:18;2.90;;;2.70;;
4933;SDS011;2482;49.154;8.254;2023-04-24T14:21:45;3.30;;;2.67;;
4933;SDS011;2482;49.154;8.254;2023-04-24T14:24:12;7.17;;;2.47;;
4933;SDS011;2482;49.154;8.254;2023-04-24T14:26:39;3.27;;;2.30;;
4933;SDS011;2482;49.154;8.254;2023-04-24T14:29:08;3.10;;;2.03;;
4933;SDS011;2482;49.154;8.254;2023-04-24T14:31:40;3.17;;;2.50;;
4933;SDS011;2482;49.154;8.254;2023-04-24T14:34:08;4.40;;;2.60;;
4933;SDS011;2482;49.154;8.254;2023-04-24T14:36:35;3.23;;;2.23;;
4933;SDS011;2482;49.154;8.254;2023-04-24T14:39:03;3.33;;;2.40;;
4933;SDS011;2482;49.154;8.254;2023-04-24T14:41:33;4.67;;;2.50;;
4933;SDS011;2482;49.154;8.254;2023-04-24T14:44:02;5.63;;;2.10;;
4933;SDS011;2482;49.154;8.254;2023-04-24T14:46:29;5.83;;;4.43;;
4933;SDS011;2482;49.154;8.254;2023-04-24T14:48:57;3.00;;;2.73;;
4933;SDS011;2482;49.154;8.254;2023-04-24T14:51:24;3.30;;;2.73;;
4933;SDS011;2482;49.154;8.254;2023-04-24T14:53:51;3.47;;;2.50;;
4933;SDS011;2482;49.154;8.254;2023-04-24T14:56:19;4.20;;;2.53;;
4933;SDS011;2482;49.154;8.254;2023-04-24T14:58:46;4.07;;;2.90;;
4933;SDS011;2482;49.154;8.254;2023-04-24T15:01:13;3.87;;;2.43;;
4933;SDS011;2482;49.154;8.254;2023-04-24T15:03:42;3.90;;;3.00;;
4933;SDS011;2482;49.154;8.254;2023-04-24T15:06:11;4.23;;;2.57;;
4933;SDS011;2482;49.154;8.254;2023-04-24T15:08:39;3.70;;;2.90;;
4933;SDS011;2482;49.154;8.254;2023-04-24T15:11:06;3.30;;;2.33;;
4933;SDS011;2482;49.154;8.254;2023-04-24T15:13:35;4.13;;;2.90;;
4933;SDS011;2482;49.154;8.254;2023-04-24T15:16:03;4.00;;;2.80;;
4933;SDS011;2482;49.154;8.254;2023-04-24T15:18:30;4.73;;;2.70;;
4933;SDS011;2482;49.154;8.254;2023-04-24T15:20:57;3.50;;;3.13;;
4933;SDS011;2482;49.154;8.254;2023-04-24T15:23:24;3.50;;;3.07;;
4933;SDS011;2482;49.154;8.254;2023-04-24T15:25:51;3.50;;;3.20;;
4933;SDS011;2482;49.154;8.254;2023-04-24T15:28:18;3.73;;;3.30;;
4933;SDS011;2482;49.154;8.254;2023-04-24T15:30:45;3.50;;;3.00;;
4933;SDS011;2482;49.154;8.254;2023-04-24T15:33:12;5.57;;;3.40;;
4933;SDS011;2482;49.154;8.254;2023-04-24T15:35:40;4.57;;;4.00;;
4933;SDS011;2482;49.154;8.254;2023-04-24T15:38:07;4.90;;;3.70;;
4933;SDS011;2482;49.154;8.254;2023-04-24T15:40:34;4.97;;;3.73;;